createdAt,value
2023-05-02T00:00:14.053Z,4.40
2023-05-02T00:00:46.700Z,4.80
2023-05-02T00:01:19.366Z,4.50
2023-05-02T00:01:52.153Z,4.50
2023-05-02T00:02:24.921Z,4.50
2023-05-02T00:02:57.758Z,4.60
2023-05-02T00:03:30.577Z,4.40
2023-05-02T00:04:03.538Z,4.70
2023-05-02T00:04:36.381Z,4.60
2023-05-02T00:05:09.167Z,4.30
2023-05-02T00:05:41.836Z,4.70
2023-05-02T00:06:14.589Z,4.30
2023-05-02T00:06:47.390Z,4.30
2023-05-02T00:07:20.043Z,4.60
2023-05-02T00:07:52.719Z,4.20
2023-05-02T00:08:25.379Z,4.50
2023-05-02T00:08:58.045Z,4.50
2023-05-02T00:09:30.716Z,4.40
2023-05-02T00:10:03.402Z,4.50
2023-05-02T00:10:36.052Z,4.30
2023-05-02T00:11:08.737Z,4.60
2023-05-02T00:11:41.401Z,4.30
2023-05-02T00:12:14.068Z,4.50
2023-05-02T00:12:46.736Z,4.50
2023-05-02T00:13:19.400Z,4.50
2023-05-02T00:13:52.079Z,4.50
2023-05-02T00:14:24.754Z,4.50
2023-05-02T00:14:57.448Z,4.60
2023-05-02T00:15:30.139Z,4.60
2023-05-02T00:16:02.795Z,4.30
2023-05-02T00:16:35.485Z,4.20
2023-05-02T00:17:08.230Z,4.50
2023-05-02T00:17:41.030Z,4.80
2023-05-02T00:18:13.719Z,4.60
2023-05-02T00:18:46.372Z,4.30
2023-05-02T00:19:19.040Z,4.70
2023-05-02T00:19:51.746Z,4.40
2023-05-02T00:20:24.430Z,4.40
2023-05-02T00:20:57.088Z,4.50
2023-05-02T00:21:29.744Z,4.30
2023-05-02T00:22:02.421Z,4.60
2023-05-02T00:22:35.083Z,4.60
2023-05-02T00:23:07.752Z,4.50
2023-05-02T00:23:40.436Z,4.60
2023-05-02T00:24:13.107Z,4.70
2023-05-02T00:24:45.792Z,4.40
2023-05-02T00:25:18.460Z,4.60
2023-05-02T00:25:51.144Z,4.50
2023-05-02T00:26:23.792Z,3.80
2023-05-02T00:26:56.451Z,4.20
2023-05-02T00:27:29.123Z,4.30
2023-05-02T00:28:01.801Z,4.50
2023-05-02T00:28:32.873Z,4.30
2023-05-02T00:29:05.547Z,4.30
2023-05-02T00:29:38.226Z,4.10
2023-05-02T00:30:10.924Z,4.40
2023-05-02T00:30:43.629Z,4.10
2023-05-02T00:31:16.289Z,4.30
2023-05-02T00:31:48.966Z,4.00
2023-05-02T00:32:21.667Z,4.40
2023-05-02T00:32:54.477Z,4.10
2023-05-02T00:33:27.141Z,4.30
2023-05-02T00:33:59.810Z,4.30
2023-05-02T00:34:32.512Z,4.30
2023-05-02T00:35:05.168Z,4.30
2023-05-02T00:35:37.836Z,4.20
2023-05-02T00:36:10.498Z,4.30
2023-05-02T00:36:43.171Z,4.10
2023-05-02T00:37:15.840Z,3.90
2023-05-02T00:37:48.529Z,4.10
2023-05-02T00:38:21.204Z,4.30
2023-05-02T00:38:53.892Z,4.30
2023-05-02T00:39:26.564Z,4.60
2023-05-02T00:39:59.549Z,4.30
2023-05-02T00:40:25.852Z,4.60
2023-05-02T00:40:58.572Z,4.40
2023-05-02T00:41:31.229Z,4.10
2023-05-02T00:42:03.894Z,4.40
2023-05-02T00:42:36.826Z,4.20
2023-05-02T00:43:09.460Z,3.90
2023-05-02T00:43:42.133Z,4.30
2023-05-02T00:44:14.811Z,4.10
2023-05-02T00:44:47.484Z,3.90
2023-05-02T00:45:20.143Z,4.00
2023-05-02T00:45:52.836Z,3.80
2023-05-02T00:46:25.500Z,4.40
2023-05-02T00:46:58.230Z,4.40
2023-05-02T00:47:30.938Z,4.10
2023-05-02T00:48:03.649Z,4.10
2023-05-02T00:48:36.291Z,4.10
2023-05-02T00:49:08.969Z,3.80
2023-05-02T00:49:41.645Z,4.20
2023-05-02T00:50:14.339Z,3.90
2023-05-02T00:50:47.007Z,3.80
2023-05-02T00:51:19.683Z,3.90
2023-05-02T00:51:52.340Z,4.00
2023-05-02T00:52:25.007Z,3.90
2023-05-02T00:52:57.673Z,4.10
2023-05-02T00:53:30.335Z,4.10
2023-05-02T00:54:02.997Z,4.00
2023-05-02T00:54:35.667Z,4.00
2023-05-02T00:55:08.357Z,3.90
2023-05-02T00:55:41.065Z,4.20
2023-05-02T00:56:13.736Z,3.90
2023-05-02T00:56:46.423Z,4.00
2023-05-02T00:57:19.097Z,4.00
2023-05-02T00:57:51.778Z,4.20
2023-05-02T00:58:24.423Z,4.00
2023-05-02T00:58:57.082Z,4.30
2023-05-02T00:59:29.757Z,3.90
2023-05-02T01:00:02.609Z,3.90
2023-05-02T01:00:35.300Z,4.40
2023-05-02T01:01:08.027Z,3.70
2023-05-02T01:01:40.732Z,3.90
2023-05-02T01:02:13.591Z,4.10
2023-05-02T01:02:46.330Z,4.00
2023-05-02T01:03:19.137Z,4.20
2023-05-02T01:03:52.062Z,3.90
2023-05-02T01:04:24.829Z,3.90
2023-05-02T01:04:57.496Z,4.10
2023-05-02T01:05:30.161Z,3.90
2023-05-02T01:06:02.894Z,4.10
2023-05-02T01:06:35.601Z,4.00
2023-05-02T01:07:08.295Z,3.70
2023-05-02T01:07:40.964Z,3.90
2023-05-02T01:08:13.635Z,4.10
2023-05-02T01:08:46.322Z,3.70
2023-05-02T01:09:19.000Z,3.60
2023-05-02T01:09:51.719Z,4.10
2023-05-02T01:10:24.388Z,3.70
2023-05-02T01:10:57.041Z,3.70
2023-05-02T01:11:29.725Z,4.00
2023-05-02T01:12:02.392Z,3.90
2023-05-02T01:12:35.057Z,4.00
2023-05-02T01:13:07.722Z,3.80
2023-05-02T01:13:40.387Z,4.10
2023-05-02T01:14:13.078Z,3.80
2023-05-02T01:14:45.747Z,3.60
2023-05-02T01:15:18.404Z,3.90
2023-05-02T01:15:51.094Z,4.10
2023-05-02T01:16:23.797Z,3.90
2023-05-02T01:16:56.492Z,3.60
2023-05-02T01:17:29.245Z,4.00
2023-05-02T01:18:01.975Z,3.70
2023-05-02T01:18:34.640Z,3.90
2023-05-02T01:19:07.310Z,3.70
2023-05-02T01:19:39.987Z,3.90
2023-05-02T01:20:12.676Z,3.90
2023-05-02T01:20:45.347Z,3.80
2023-05-02T01:21:18.039Z,4.00
2023-05-02T01:21:50.690Z,3.60
2023-05-02T01:22:23.365Z,3.70
2023-05-02T01:22:56.029Z,4.10
2023-05-02T01:23:28.697Z,4.10
2023-05-02T01:24:01.358Z,3.70
2023-05-02T01:24:34.042Z,3.80
2023-05-02T01:25:06.749Z,3.70
2023-05-02T01:25:39.404Z,3.70
2023-05-02T01:26:12.061Z,4.00
2023-05-02T01:26:44.729Z,3.70
2023-05-02T01:27:17.396Z,3.90
2023-05-02T01:27:50.060Z,3.80
2023-05-02T01:28:22.752Z,3.70
2023-05-02T01:28:55.395Z,3.90
2023-05-02T01:29:28.065Z,3.90
2023-05-02T01:30:01.046Z,3.90
2023-05-02T01:30:27.302Z,3.90
2023-05-02T01:30:58.405Z,3.70
2023-05-02T01:31:31.153Z,4.20
2023-05-02T01:32:03.921Z,4.00
2023-05-02T01:32:36.677Z,3.80
2023-05-02T01:33:09.409Z,3.80
2023-05-02T01:33:42.078Z,4.00
2023-05-02T01:34:14.743Z,3.90
2023-05-02T01:34:47.426Z,3.80
2023-05-02T01:35:20.108Z,3.80
2023-05-02T01:35:52.764Z,3.80
2023-05-02T01:36:25.419Z,3.90
2023-05-02T01:36:58.100Z,3.90
2023-05-02T01:37:30.765Z,3.90
2023-05-02T01:38:03.438Z,3.70
2023-05-02T01:38:36.129Z,4.00
2023-05-02T01:39:08.800Z,3.70
2023-05-02T01:39:41.475Z,3.60
2023-05-02T01:40:14.157Z,3.70
2023-05-02T01:40:46.844Z,3.90
2023-05-02T01:41:19.496Z,3.90
2023-05-02T01:41:52.193Z,3.80
2023-05-02T01:42:24.836Z,3.90
2023-05-02T01:42:57.491Z,3.80
2023-05-02T01:43:30.158Z,3.80
2023-05-02T01:44:02.843Z,3.90
2023-05-02T01:44:35.504Z,3.80
2023-05-02T01:45:08.222Z,3.80
2023-05-02T01:45:40.877Z,3.60
2023-05-02T01:46:13.674Z,3.80
2023-05-02T01:46:46.512Z,3.70
2023-05-02T01:47:19.319Z,3.90
2023-05-02T01:47:51.998Z,4.20
2023-05-02T01:48:24.664Z,3.70
2023-05-02T01:48:57.331Z,3.50
2023-05-02T01:49:30.016Z,3.70
2023-05-02T01:50:02.770Z,3.60
2023-05-02T01:50:35.443Z,3.80
2023-05-02T01:51:08.115Z,3.60
2023-05-02T01:51:40.771Z,3.60
2023-05-02T01:52:13.438Z,3.80
2023-05-02T01:52:46.118Z,3.70
2023-05-02T01:53:18.791Z,3.90
2023-05-02T01:53:51.457Z,3.70
2023-05-02T01:54:24.124Z,3.70
2023-05-02T01:54:56.810Z,3.80
2023-05-02T01:55:29.479Z,3.50
2023-05-02T01:56:02.151Z,3.50
2023-05-02T01:56:34.837Z,3.70
2023-05-02T01:57:07.501Z,4.00
2023-05-02T01:57:40.167Z,3.80
2023-05-02T01:58:12.834Z,3.90
2023-05-02T01:58:45.504Z,3.60
2023-05-02T01:59:18.215Z,3.70
2023-05-02T01:59:49.325Z,3.80
2023-05-02T02:00:21.992Z,3.50
2023-05-02T02:00:54.670Z,3.60
2023-05-02T02:01:27.389Z,3.80
2023-05-02T02:02:00.149Z,3.70
2023-05-02T02:02:32.810Z,3.80
2023-05-02T02:03:05.490Z,3.60
2023-05-02T02:03:38.223Z,3.70
2023-05-02T02:04:10.947Z,3.90
2023-05-02T02:04:43.687Z,3.50
2023-05-02T02:05:16.421Z,3.70
2023-05-02T02:05:49.092Z,3.80
2023-05-02T02:06:21.813Z,3.80
2023-05-02T02:06:54.518Z,3.50
2023-05-02T02:07:27.204Z,3.60
2023-05-02T02:07:59.883Z,3.80
2023-05-02T02:08:32.562Z,3.80
2023-05-02T02:09:05.215Z,3.90
2023-05-02T02:09:37.900Z,3.80
2023-05-02T02:10:10.576Z,3.90
2023-05-02T02:10:43.262Z,3.40
2023-05-02T02:11:15.915Z,3.90
2023-05-02T02:11:48.576Z,3.90
2023-05-02T02:12:21.241Z,4.00
2023-05-02T02:12:53.901Z,3.70
2023-05-02T02:13:26.566Z,3.50
2023-05-02T02:13:59.235Z,3.70
2023-05-02T02:14:31.898Z,3.70
2023-05-02T02:15:04.582Z,3.50
2023-05-02T02:15:37.263Z,3.40
2023-05-02T02:16:09.982Z,3.90
2023-05-02T02:16:42.707Z,3.90
2023-05-02T02:17:15.390Z,3.80
2023-05-02T02:17:48.109Z,3.80
2023-05-02T02:18:20.787Z,3.90
2023-05-02T02:18:53.458Z,3.60
2023-05-02T02:19:26.167Z,4.10
2023-05-02T02:19:59.260Z,3.60
2023-05-02T02:20:25.664Z,3.80
2023-05-02T02:20:58.328Z,3.70
2023-05-02T02:21:31.002Z,3.60
2023-05-02T02:22:03.674Z,3.80
2023-05-02T02:22:36.374Z,3.90
2023-05-02T02:23:09.056Z,3.60
2023-05-02T02:23:41.732Z,3.80
2023-05-02T02:24:14.450Z,3.80
2023-05-02T02:24:47.118Z,3.90
2023-05-02T02:25:19.792Z,4.10
2023-05-02T02:25:52.457Z,3.60
2023-05-02T02:26:25.128Z,3.50
2023-05-02T02:26:57.794Z,3.70
2023-05-02T02:27:30.469Z,4.00
2023-05-02T02:28:03.154Z,3.80
2023-05-02T02:28:35.819Z,3.90
2023-05-02T02:29:08.484Z,3.70
2023-05-02T02:29:41.162Z,4.10
2023-05-02T02:30:13.860Z,3.50
2023-05-02T02:30:46.680Z,3.80
2023-05-02T02:31:19.400Z,3.80
2023-05-02T02:31:52.059Z,4.10
2023-05-02T02:32:24.790Z,3.60
2023-05-02T02:32:57.625Z,3.70
2023-05-02T02:33:30.398Z,3.90
2023-05-02T02:34:03.058Z,3.80
2023-05-02T02:34:35.730Z,3.70
2023-05-02T02:35:08.431Z,3.80
2023-05-02T02:35:41.112Z,3.80
2023-05-02T02:36:13.785Z,3.50
2023-05-02T02:36:46.448Z,3.50
2023-05-02T02:37:19.143Z,4.10
2023-05-02T02:37:51.789Z,3.90
2023-05-02T02:38:24.468Z,3.70
2023-05-02T02:38:57.121Z,3.80
2023-05-02T02:39:29.800Z,3.70
2023-05-02T02:40:02.719Z,3.70
2023-05-02T02:40:29.050Z,3.60
2023-05-02T02:41:01.724Z,3.70
2023-05-02T02:41:34.405Z,3.60
2023-05-02T02:42:07.051Z,3.50
2023-05-02T02:42:39.739Z,3.90
2023-05-02T02:43:12.422Z,3.90
2023-05-02T02:43:45.097Z,3.50
2023-05-02T02:44:17.763Z,3.80
2023-05-02T02:44:50.461Z,3.60
2023-05-02T02:45:23.151Z,3.70
2023-05-02T02:45:55.823Z,3.80
2023-05-02T02:46:28.616Z,3.80
2023-05-02T02:47:01.278Z,3.50
2023-05-02T02:47:34.030Z,3.60
2023-05-02T02:48:06.751Z,3.60
2023-05-02T02:48:39.405Z,3.60
2023-05-02T02:49:12.079Z,3.60
2023-05-02T02:49:44.767Z,3.40
2023-05-02T02:50:17.511Z,4.00
2023-05-02T02:50:50.134Z,3.40
2023-05-02T02:51:22.805Z,3.60
2023-05-02T02:51:55.468Z,3.60
2023-05-02T02:52:28.134Z,3.90
2023-05-02T02:53:00.806Z,3.60
2023-05-02T02:53:33.461Z,3.80
2023-05-02T02:54:15.485Z,3.60
2023-05-02T02:54:38.238Z,3.70
2023-05-02T02:55:04.423Z,3.60
2023-05-02T02:55:31.175Z,3.60
2023-05-02T02:56:03.876Z,3.70
2023-05-02T02:56:36.553Z,3.70
2023-05-02T02:57:09.193Z,3.50
2023-05-02T02:57:41.867Z,3.20
2023-05-02T02:58:14.534Z,3.70
2023-05-02T02:58:47.216Z,3.60
2023-05-02T02:59:19.879Z,3.60
2023-05-02T02:59:52.553Z,3.90
2023-05-02T03:00:25.246Z,3.30
2023-05-02T03:00:57.936Z,3.40
2023-05-02T03:01:30.668Z,3.70
2023-05-02T03:02:03.382Z,3.70
2023-05-02T03:02:36.116Z,3.80
2023-05-02T03:03:08.861Z,3.80
2023-05-02T03:03:41.684Z,3.50
2023-05-02T03:04:14.514Z,3.70
2023-05-02T03:04:47.231Z,3.60
2023-05-02T03:05:19.885Z,3.70
2023-05-02T03:05:52.554Z,3.40
2023-05-02T03:06:25.352Z,3.50
2023-05-02T03:06:58.023Z,3.60
2023-05-02T03:07:30.684Z,3.60
2023-05-02T03:08:03.355Z,3.80
2023-05-02T03:08:36.018Z,3.70
2023-05-02T03:09:08.687Z,3.30
2023-05-02T03:09:41.348Z,3.70
2023-05-02T03:10:14.043Z,3.50
2023-05-02T03:10:46.697Z,3.90
2023-05-02T03:11:19.383Z,3.70
2023-05-02T03:11:52.044Z,3.60
2023-05-02T03:12:24.708Z,3.70
2023-05-02T03:12:57.393Z,3.80
2023-05-02T03:13:30.053Z,3.80
2023-05-02T03:14:02.750Z,3.30
2023-05-02T03:14:33.806Z,3.50
2023-05-02T03:15:06.489Z,3.70
2023-05-02T03:15:39.206Z,3.60
2023-05-02T03:16:11.923Z,3.70
2023-05-02T03:16:44.744Z,3.40
2023-05-02T03:17:17.468Z,3.60
2023-05-02T03:17:50.187Z,3.40
2023-05-02T03:18:22.854Z,3.60
2023-05-02T03:18:55.545Z,3.50
2023-05-02T03:19:28.206Z,3.50
2023-05-02T03:20:01.072Z,3.80
2023-05-02T03:20:27.436Z,3.60
2023-05-02T03:21:00.090Z,3.40
2023-05-02T03:21:32.765Z,3.30
2023-05-02T03:22:05.455Z,3.50
2023-05-02T03:22:38.120Z,3.60
2023-05-02T03:23:10.785Z,3.40
2023-05-02T03:23:43.465Z,3.10
2023-05-02T03:24:18.433Z,3.40
2023-05-02T03:24:45.238Z,3.60
2023-05-02T03:25:17.905Z,3.40
2023-05-02T03:25:50.738Z,3.30
2023-05-02T03:26:23.395Z,3.40
2023-05-02T03:26:56.070Z,3.30
2023-05-02T03:27:28.736Z,3.30
2023-05-02T03:28:01.397Z,3.50
2023-05-02T03:28:34.052Z,3.40
2023-05-02T03:29:06.729Z,3.30
2023-05-02T03:29:39.400Z,3.50
2023-05-02T03:30:12.074Z,3.20
2023-05-02T03:30:44.742Z,3.60
2023-05-02T03:31:17.450Z,3.80
2023-05-02T03:31:50.240Z,3.40
2023-05-02T03:32:22.916Z,3.20
2023-05-02T03:32:55.686Z,3.50
2023-05-02T03:33:28.345Z,3.40
2023-05-02T03:33:59.471Z,3.50
2023-05-02T03:34:32.116Z,3.80
2023-05-02T03:35:04.806Z,3.80
2023-05-02T03:35:37.484Z,3.40
2023-05-02T03:36:10.166Z,3.60
2023-05-02T03:36:42.846Z,3.50
2023-05-02T03:37:15.509Z,3.80
2023-05-02T03:37:48.174Z,3.60
2023-05-02T03:38:20.831Z,3.50
2023-05-02T03:38:53.512Z,3.70
2023-05-02T03:39:26.172Z,3.50
2023-05-02T03:39:59.013Z,3.40
2023-05-02T03:40:31.745Z,3.50
2023-05-02T03:41:04.419Z,3.30
2023-05-02T03:41:37.083Z,3.20
2023-05-02T03:42:09.757Z,3.60
2023-05-02T03:42:42.419Z,3.20
2023-05-02T03:43:15.103Z,3.60
2023-05-02T03:43:47.753Z,3.30
2023-05-02T03:44:20.427Z,3.20
2023-05-02T03:44:53.123Z,3.20
2023-05-02T03:45:25.766Z,3.20
2023-05-02T03:45:58.434Z,3.10
2023-05-02T03:46:31.144Z,3.00
2023-05-02T03:47:03.908Z,3.20
2023-05-02T03:47:36.618Z,3.50
2023-05-02T03:48:09.445Z,3.20
2023-05-02T03:48:42.158Z,3.10
2023-05-02T03:49:14.805Z,3.20
2023-05-02T03:49:47.472Z,3.10
2023-05-02T03:50:20.153Z,3.10
2023-05-02T03:50:52.813Z,3.30
2023-05-02T03:51:25.485Z,3.30
2023-05-02T03:51:58.145Z,3.10
2023-05-02T03:52:30.814Z,2.90
2023-05-02T03:53:03.485Z,2.90
2023-05-02T03:53:36.157Z,3.00
2023-05-02T03:54:08.829Z,3.00
2023-05-02T03:54:41.527Z,3.00
2023-05-02T03:55:14.243Z,3.10
2023-05-02T03:55:46.909Z,2.70
2023-05-02T03:56:19.564Z,3.10
2023-05-02T03:56:52.231Z,3.00
2023-05-02T03:57:24.906Z,2.90
2023-05-02T03:57:57.577Z,2.80
2023-05-02T03:58:30.239Z,3.20
2023-05-02T03:59:02.913Z,2.80
2023-05-02T03:59:35.593Z,3.00
2023-05-02T04:00:08.271Z,2.70
2023-05-02T04:00:40.934Z,3.00
2023-05-02T04:01:13.607Z,3.00
2023-05-02T04:01:46.281Z,2.80
2023-05-02T04:02:18.964Z,2.70
2023-05-02T04:02:51.729Z,2.90
2023-05-02T04:03:24.580Z,2.80
2023-05-02T04:03:50.932Z,3.00
2023-05-02T04:04:23.641Z,2.80
2023-05-02T04:04:56.318Z,2.90
2023-05-02T04:05:28.992Z,3.00
2023-05-02T04:06:01.688Z,3.00
2023-05-02T04:06:34.385Z,2.80
2023-05-02T04:07:07.089Z,3.10
2023-05-02T04:07:39.786Z,3.30
2023-05-02T04:08:12.459Z,2.90
2023-05-02T04:08:45.127Z,2.80
2023-05-02T04:09:17.788Z,3.20
2023-05-02T04:09:50.481Z,3.10
2023-05-02T04:10:23.156Z,2.90
2023-05-02T04:10:55.816Z,3.10
2023-05-02T04:11:28.535Z,3.40
2023-05-02T04:12:01.189Z,3.10
2023-05-02T04:12:33.879Z,3.00
2023-05-02T04:13:06.581Z,2.90
2023-05-02T04:13:37.659Z,2.90
2023-05-02T04:14:10.327Z,2.90
2023-05-02T04:14:43.024Z,3.00
2023-05-02T04:15:15.734Z,2.90
2023-05-02T04:15:48.446Z,2.80
2023-05-02T04:16:21.119Z,3.00
2023-05-02T04:16:53.850Z,3.00
2023-05-02T04:17:26.613Z,2.90
2023-05-02T04:17:59.388Z,3.00
2023-05-02T04:18:32.064Z,3.00
2023-05-02T04:19:04.702Z,3.20
2023-05-02T04:19:37.383Z,3.00
2023-05-02T04:20:10.057Z,2.90
2023-05-02T04:20:42.709Z,3.10
2023-05-02T04:21:15.386Z,3.30
2023-05-02T04:21:48.060Z,3.40
2023-05-02T04:22:20.728Z,3.40
2023-05-02T04:22:53.395Z,3.20
2023-05-02T04:23:26.297Z,3.50
2023-05-02T04:23:58.971Z,3.20
2023-05-02T04:24:31.639Z,3.20
2023-05-02T04:25:04.328Z,3.20
2023-05-02T04:25:36.999Z,3.40
2023-05-02T04:26:08.076Z,3.30
2023-05-02T04:26:40.745Z,3.40
2023-05-02T04:27:15.295Z,3.50
2023-05-02T04:27:41.705Z,3.30
2023-05-02T04:28:14.365Z,3.70
2023-05-02T04:28:47.039Z,3.20
2023-05-02T04:29:19.720Z,3.60
2023-05-02T04:29:52.398Z,3.40
2023-05-02T04:30:25.078Z,3.40
2023-05-02T04:30:57.903Z,2.90
2023-05-02T04:31:30.727Z,3.40
2023-05-02T04:32:03.399Z,3.60
2023-05-02T04:32:36.146Z,3.40
2023-05-02T04:33:08.885Z,3.50
2023-05-02T04:33:41.562Z,3.40
2023-05-02T04:34:14.202Z,3.30
2023-05-02T04:34:46.895Z,3.40
2023-05-02T04:35:19.557Z,3.40
2023-05-02T04:35:52.238Z,3.00
2023-05-02T04:36:24.897Z,3.30
2023-05-02T04:36:57.564Z,3.20
2023-05-02T04:37:30.239Z,3.40
2023-05-02T04:38:02.904Z,3.40
2023-05-02T04:38:35.619Z,3.50
2023-05-02T04:39:08.299Z,3.20
2023-05-02T04:39:40.939Z,3.20
2023-05-02T04:40:13.640Z,3.50
2023-05-02T04:40:46.326Z,3.40
2023-05-02T04:41:18.976Z,3.30
2023-05-02T04:41:51.649Z,3.40
2023-05-02T04:42:24.320Z,3.50
2023-05-02T04:42:56.974Z,3.40
2023-05-02T04:43:29.645Z,3.30
2023-05-02T04:44:02.332Z,3.20
2023-05-02T04:44:35.029Z,3.30
2023-05-02T04:45:07.705Z,3.40
2023-05-02T04:45:38.783Z,3.20
2023-05-02T04:46:11.487Z,3.30
2023-05-02T04:46:44.206Z,3.00
2023-05-02T04:47:16.855Z,3.10
2023-05-02T04:47:49.590Z,3.20
2023-05-02T04:48:20.607Z,3.20
2023-05-02T04:48:53.340Z,3.10
2023-05-02T04:49:25.989Z,3.40
2023-05-02T04:49:58.916Z,3.30
2023-05-02T04:50:25.222Z,3.00
2023-05-02T04:50:57.896Z,3.30
2023-05-02T04:51:30.590Z,3.20
2023-05-02T04:52:03.258Z,3.10
2023-05-02T04:52:35.917Z,3.20
2023-05-02T04:53:08.597Z,3.80
2023-05-02T04:53:41.255Z,3.50
2023-05-02T04:54:13.932Z,3.30
2023-05-02T04:54:46.592Z,3.20
2023-05-02T04:55:19.265Z,3.80
2023-05-02T04:55:51.934Z,3.30
2023-05-02T04:56:24.622Z,3.30
2023-05-02T04:56:57.284Z,3.30
2023-05-02T04:57:29.959Z,3.40
2023-05-02T04:58:02.626Z,3.00
2023-05-02T04:58:35.313Z,3.20
2023-05-02T04:59:07.971Z,3.10
2023-05-02T04:59:40.687Z,3.20
2023-05-02T05:00:13.338Z,3.30
2023-05-02T05:00:46.025Z,3.10
2023-05-02T05:01:18.768Z,3.40
2023-05-02T05:01:51.485Z,3.00
2023-05-02T05:02:24.183Z,3.10
2023-05-02T05:02:58.487Z,3.40
2023-05-02T05:03:25.529Z,3.20
2023-05-02T05:03:56.718Z,3.10
2023-05-02T05:04:23.124Z,2.80
2023-05-02T05:04:55.858Z,3.40
2023-05-02T05:05:28.666Z,3.20
2023-05-02T05:06:01.365Z,3.10
2023-05-02T05:06:34.053Z,3.10
2023-05-02T05:07:06.734Z,2.90
2023-05-02T05:07:39.411Z,3.00
2023-05-02T05:08:12.074Z,3.10
2023-05-02T05:08:44.756Z,3.30
2023-05-02T05:09:17.434Z,3.20
2023-05-02T05:09:48.531Z,3.50
2023-05-02T05:10:21.218Z,3.40
2023-05-02T05:10:53.892Z,3.40
2023-05-02T05:11:26.568Z,3.30
2023-05-02T05:11:59.217Z,3.10
2023-05-02T05:12:31.885Z,3.30
2023-05-02T05:13:04.550Z,3.10
2023-05-02T05:13:37.216Z,3.30
2023-05-02T05:14:09.890Z,3.40
2023-05-02T05:14:42.554Z,3.10
2023-05-02T05:15:15.232Z,3.20
2023-05-02T05:15:47.942Z,3.20
2023-05-02T05:16:20.640Z,2.90
2023-05-02T05:16:53.321Z,3.20
2023-05-02T05:17:26.053Z,3.40
2023-05-02T05:17:58.853Z,3.00
2023-05-02T05:18:31.565Z,3.10
2023-05-02T05:19:04.375Z,3.10
2023-05-02T05:19:37.141Z,3.20
2023-05-02T05:20:09.839Z,3.20
2023-05-02T05:20:42.492Z,3.00
2023-05-02T05:21:15.174Z,3.20
2023-05-02T05:21:47.838Z,2.90
2023-05-02T05:22:20.490Z,3.10
2023-05-02T05:22:53.166Z,2.90
2023-05-02T05:23:25.832Z,3.10
2023-05-02T05:23:58.492Z,2.90
2023-05-02T05:24:31.204Z,3.00
2023-05-02T05:25:03.966Z,3.00
2023-05-02T05:25:36.660Z,2.90
2023-05-02T05:26:09.342Z,3.00
2023-05-02T05:26:42.015Z,2.80
2023-05-02T05:27:14.683Z,3.20
2023-05-02T05:27:47.352Z,2.90
2023-05-02T05:28:20.028Z,3.20
2023-05-02T05:28:52.698Z,3.10
2023-05-02T05:29:25.390Z,3.10
2023-05-02T05:29:58.228Z,3.10
2023-05-02T05:30:31.023Z,3.10
2023-05-02T05:31:03.707Z,3.10
2023-05-02T05:31:36.417Z,2.90
2023-05-02T05:32:09.159Z,3.10
2023-05-02T05:32:41.874Z,3.00
2023-05-02T05:33:14.622Z,3.20
2023-05-02T05:33:47.384Z,3.20
2023-05-02T05:34:20.093Z,3.10
2023-05-02T05:34:52.748Z,3.20
2023-05-02T05:35:25.396Z,3.10
2023-05-02T05:35:58.067Z,3.30
2023-05-02T05:36:30.753Z,3.50
2023-05-02T05:37:03.916Z,3.20
2023-05-02T05:37:30.549Z,3.10
2023-05-02T05:38:03.232Z,3.40
2023-05-02T05:38:35.883Z,3.50
2023-05-02T05:39:08.560Z,3.40
2023-05-02T05:39:41.230Z,3.50
2023-05-02T05:40:13.909Z,3.10
2023-05-02T05:40:46.586Z,3.70
2023-05-02T05:41:19.244Z,3.30
2023-05-02T05:41:51.933Z,3.30
2023-05-02T05:42:24.613Z,3.40
2023-05-02T05:42:57.298Z,3.20
2023-05-02T05:43:29.978Z,3.30
2023-05-02T05:44:02.635Z,3.60
2023-05-02T05:44:35.316Z,3.40
2023-05-02T05:45:07.999Z,3.60
2023-05-02T05:45:40.669Z,3.50
2023-05-02T05:46:13.337Z,3.50
2023-05-02T05:46:46.090Z,3.40
2023-05-02T05:47:18.831Z,3.60
2023-05-02T05:47:51.503Z,3.90
2023-05-02T05:48:24.221Z,4.10
2023-05-02T05:48:56.891Z,3.90
2023-05-02T05:49:29.600Z,3.70
2023-05-02T05:50:02.550Z,4.10
2023-05-02T05:50:28.961Z,4.00
2023-05-02T05:51:01.632Z,3.90
2023-05-02T05:51:34.305Z,3.80
2023-05-02T05:52:06.993Z,3.80
2023-05-02T05:52:39.657Z,3.70
2023-05-02T05:53:12.332Z,4.00
2023-05-02T05:53:44.997Z,4.00
2023-05-02T05:54:17.675Z,3.90
2023-05-02T05:54:50.331Z,4.00
2023-05-02T05:55:22.998Z,4.00
2023-05-02T05:55:55.669Z,3.90
2023-05-02T05:56:28.326Z,4.00
2023-05-02T05:57:01.030Z,3.90
2023-05-02T05:57:33.705Z,3.90
2023-05-02T05:58:06.362Z,3.90
2023-05-02T05:58:39.037Z,4.30
2023-05-02T05:59:11.722Z,4.20
2023-05-02T05:59:44.394Z,4.20
2023-05-02T06:00:17.041Z,4.20
2023-05-02T06:00:49.734Z,4.10
2023-05-02T06:01:22.380Z,4.40
2023-05-02T06:01:55.052Z,4.10
2023-05-02T06:02:27.834Z,4.00
2023-05-02T06:03:00.645Z,4.10
2023-05-02T06:03:33.510Z,4.50
2023-05-02T06:03:59.899Z,3.90
2023-05-02T06:04:32.710Z,4.50
2023-05-02T06:05:05.474Z,4.30
2023-05-02T06:05:38.166Z,4.70
2023-05-02T06:06:10.860Z,4.10
2023-05-02T06:06:43.560Z,4.40
2023-05-02T06:07:16.227Z,4.40
2023-05-02T06:07:48.910Z,4.50
2023-05-02T06:08:21.587Z,4.30
2023-05-02T06:08:54.269Z,4.20
2023-05-02T06:09:26.951Z,4.60
2023-05-02T06:09:59.969Z,4.50
2023-05-02T06:10:26.293Z,4.60
2023-05-02T06:10:58.969Z,4.70
2023-05-02T06:11:31.616Z,4.80
2023-05-02T06:12:04.309Z,4.70
2023-05-02T06:12:36.966Z,4.40
2023-05-02T06:13:09.635Z,4.70
2023-05-02T06:13:42.302Z,5.00
2023-05-02T06:14:14.984Z,4.60
2023-05-02T06:14:47.622Z,4.60
2023-05-02T06:15:20.289Z,5.00
2023-05-02T06:15:53.003Z,5.00
2023-05-02T06:16:25.711Z,4.50
2023-05-02T06:16:58.353Z,4.30
2023-05-02T06:17:31.048Z,4.40
2023-05-02T06:18:03.797Z,4.70
2023-05-02T06:18:36.542Z,4.20
2023-05-02T06:19:09.208Z,4.70
2023-05-02T06:19:41.898Z,4.70
2023-05-02T06:20:15.639Z,4.90
2023-05-02T06:20:42.717Z,4.60
2023-05-02T06:21:15.379Z,4.60
2023-05-02T06:21:48.033Z,5.10
2023-05-02T06:22:20.724Z,4.40
2023-05-02T06:22:53.376Z,4.90
2023-05-02T06:23:26.046Z,4.70
2023-05-02T06:23:58.714Z,5.00
2023-05-02T06:24:31.393Z,4.70
2023-05-02T06:25:04.059Z,4.70
2023-05-02T06:25:36.719Z,4.90
2023-05-02T06:26:09.387Z,5.10
2023-05-02T06:26:42.064Z,5.00
2023-05-02T06:27:14.753Z,5.10
2023-05-02T06:27:47.463Z,5.00
2023-05-02T06:28:20.133Z,5.30
2023-05-02T06:28:52.802Z,5.30
2023-05-02T06:29:25.472Z,5.50
2023-05-02T06:29:58.438Z,5.80
2023-05-02T06:30:24.782Z,5.60
2023-05-02T06:30:57.433Z,5.40
2023-05-02T06:31:30.139Z,5.50
2023-05-02T06:32:02.844Z,5.40
2023-05-02T06:32:35.582Z,5.20
2023-05-02T06:33:08.286Z,5.40
2023-05-02T06:33:40.974Z,5.40
2023-05-02T06:34:13.650Z,5.70
2023-05-02T06:34:46.344Z,5.40
2023-05-02T06:35:18.975Z,5.30
2023-05-02T06:35:51.642Z,5.20
2023-05-02T06:36:24.306Z,5.40
2023-05-02T06:36:56.990Z,5.60
2023-05-02T06:37:29.647Z,5.40
2023-05-02T06:38:02.331Z,5.70
2023-05-02T06:38:35.016Z,5.60
2023-05-02T06:39:07.687Z,5.80
2023-05-02T06:39:40.358Z,6.00
2023-05-02T06:40:13.053Z,5.60
2023-05-02T06:40:45.733Z,5.90
2023-05-02T06:41:18.535Z,5.60
2023-05-02T06:41:51.222Z,5.40
2023-05-02T06:42:23.891Z,5.40
2023-05-02T06:42:56.586Z,5.50
2023-05-02T06:43:29.269Z,5.30
2023-05-02T06:44:01.940Z,5.20
2023-05-02T06:44:34.610Z,5.60
2023-05-02T06:45:07.267Z,5.80
2023-05-02T06:45:39.936Z,5.60
2023-05-02T06:46:12.610Z,5.30
2023-05-02T06:46:45.328Z,5.60
2023-05-02T06:47:18.035Z,5.50
2023-05-02T06:47:50.748Z,5.70
2023-05-02T06:48:23.458Z,5.60
2023-05-02T06:48:56.137Z,6.00
2023-05-02T06:49:28.812Z,5.70
2023-05-02T06:50:01.730Z,5.40
2023-05-02T06:50:28.184Z,5.50
2023-05-02T06:51:00.855Z,5.90
2023-05-02T06:51:33.506Z,5.50
2023-05-02T06:52:06.174Z,5.70
2023-05-02T06:52:38.865Z,5.80
2023-05-02T06:53:11.538Z,5.50
2023-05-02T06:53:44.219Z,5.80
2023-05-02T06:54:16.881Z,5.80
2023-05-02T06:54:49.544Z,5.90
2023-05-02T06:55:22.213Z,5.60
2023-05-02T06:55:54.886Z,5.70
2023-05-02T06:56:27.560Z,5.80
2023-05-02T06:57:00.214Z,5.40
2023-05-02T06:57:32.904Z,5.50
2023-05-02T06:58:05.576Z,5.30
2023-05-02T06:58:38.267Z,5.40
2023-05-02T06:59:10.944Z,5.60
2023-05-02T06:59:43.621Z,5.30
2023-05-02T07:00:16.295Z,5.30
2023-05-02T07:00:49.096Z,5.30
2023-05-02T07:01:21.750Z,5.10
2023-05-02T07:01:54.408Z,4.80
2023-05-02T07:02:27.179Z,4.70
2023-05-02T07:02:59.885Z,4.80
2023-05-02T07:03:32.533Z,4.80
2023-05-02T07:04:05.234Z,4.60
2023-05-02T07:04:37.880Z,4.50
2023-05-02T07:05:10.631Z,4.60
2023-05-02T07:05:43.286Z,4.30
2023-05-02T07:06:15.998Z,4.60
2023-05-02T07:06:48.891Z,4.80
2023-05-02T07:07:15.177Z,4.90
2023-05-02T07:07:47.890Z,4.90
2023-05-02T07:08:20.569Z,4.50
2023-05-02T07:08:53.241Z,4.50
2023-05-02T07:09:25.920Z,4.50
2023-05-02T07:09:58.796Z,4.40
2023-05-02T07:10:25.149Z,4.60
2023-05-02T07:10:57.853Z,4.40
2023-05-02T07:11:30.528Z,4.40
2023-05-02T07:12:06.035Z,4.40
2023-05-02T07:12:32.976Z,4.40